Time;durP1;ratioP1;P1;durP2;ratioP2;P2;SDS_P1;SDS_P2;PMS_P1;PMS_P2;Temp;Humidity;BMP_temperature;BMP_pressure;BME280_temperature;BME280_humidity;BME280_pressure;Samples;Min_cycle;Max_cycle;Signal;HPM_P1;HPM_P2
2022/12/07 00:01:38;;;;;;;4.70;1.40;;;;;;;1.58;85.80;95435.84;1704274;84;20997;-64
2022/12/07 00:04:07;;;;;;;1.57;0.83;;;;;;;1.62;86.15;95440.67;1704391;84;21049;-64
2022/12/07 00:06:40;;;;;;;3.70;1.33;;;;;;;1.57;82.87;95438.00;1704161;84;20990;-64
2022/12/07 00:09:17;;;;;;;1.15;0.95;;;;;;;1.61;84.81;95433.70;1704428;84;21060;-64
2022/12/07 00:11:45;;;;;;;1.43;1.20;;;;;;;1.62;85.21;95429.84;1704168;84;21627;-64
2022/12/07 00:14:15;;;;;;;1.70;1.30;;;;;;;1.60;85.34;95425.47;1700069;84;21030;-64
2022/12/07 00:16:43;;;;;;;2.07;1.30;;;;;;;1.57;85.38;95426.30;1704256;84;21064;-64
2022/12/07 00:19:11;;;;;;;1.03;0.93;;;;;;;1.54;85.31;95426.27;1704427;84;21025;-64
2022/12/07 00:21:39;;;;;;;3.63;1.80;;;;;;;1.47;85.52;95420.53;1704461;84;21503;-64
2022/12/07 00:24:06;;;;;;;1.43;1.30;;;;;;;1.36;85.36;95429.49;1704124;84;21045;-64
2022/12/07 00:26:37;;;;;;;2.20;1.50;;;;;;;1.35;85.37;95422.95;1703962;84;21017;-64
2022/12/07 00:29:09;;;;;;;2.27;1.60;;;;;;;1.39;85.22;95426.06;1704140;84;21077;-64
2022/12/07 00:31:40;;;;;;;3.00;1.50;;;;;;;1.41;85.42;95425.63;1704303;84;21018;-64
2022/12/07 00:34:11;;;;;;;2.00;1.50;;;;;;;1.38;85.27;95433.39;1704227;84;21075;-64
2022/12/07 00:36:38;;;;;;;3.10;1.30;;;;;;;1.32;85.33;95426.83;1674169;86;21025;-64
2022/12/07 00:39:04;;;;;;;1.00;0.90;;;;;;;1.32;85.30;95424.22;1674917;86;21033;-64
2022/12/07 00:41:31;;;;;;;2.23;1.50;;;;;;;1.32;85.39;95424.22;1674592;86;21025;-64
2022/12/07 00:43:58;;;;;;;1.50;1.20;;;;;;;1.25;85.61;95423.25;1674769;85;20993;-64
2022/12/07 00:46:25;;;;;;;3.67;1.40;;;;;;;1.25;85.42;95420.22;1674883;85;21487;-64
2022/12/07 00:48:54;;;;;;;1.33;1.23;;;;;;;1.33;85.82;95420.76;1674668;86;21029;-64
2022/12/07 00:51:23;;;;;;;1.40;1.30;;;;;;;1.34;85.64;95426.42;1690734;84;21133;-64
2022/12/07 00:53:51;;;;;;;1.30;1.20;;;;;;;1.33;85.85;95419.45;1704583;84;21026;-64
2022/12/07 00:56:25;;;;;;;2.00;1.50;;;;;;;1.39;86.02;95420.86;1704491;84;20968;-65
2022/12/07 00:58:55;;;;;;;1.50;1.20;;;;;;;1.45;86.24;95411.83;1697384;84;21026;-65
2022/12/07 01:01:23;;;;;;;1.50;1.30;;;;;;;1.37;84.30;95416.06;1704517;84;21015;-64
2022/12/07 01:03:50;;;;;;;1.10;0.97;;;;;;;1.32;85.26;95415.13;1704397;84;20979;-64
2022/12/07 01:06:19;;;;;;;1.43;1.03;;;;;;;1.25;84.90;95417.63;1704589;84;21000;-64
2022/12/07 01:08:46;;;;;;;1.20;1.10;;;;;;;1.26;84.99;95411.59;1704475;84;20995;-64
2022/12/07 01:11:17;;;;;;;3.03;1.33;;;;;;;1.25;84.64;95413.72;1704205;84;21079;-64
2022/12/07 01:13:45;;;;;;;2.17;1.20;;;;;;;1.17;84.57;95415.34;1704379;84;21023;-64
2022/12/07 01:16:15;;;;;;;1.70;1.40;;;;;;;1.13;84.79;95419.17;1704388;84;21003;-64
2022/12/07 01:18:42;;;;;;;1.40;1.30;;;;;;;1.08;85.22;95408.70;1674547;84;21121;-64
2022/12/07 01:21:16;;;;;;;1.07;0.97;;;;;;;1.03;85.30;95415.55;1704591;84;20975;-64
2022/12/07 01:23:44;;;;;;;1.60;1.40;;;;;;;1.00;85.71;95408.59;1704430;84;21012;-64
2022/12/07 01:26:15;;;;;;;1.93;1.20;;;;;;;1.00;85.66;95408.59;1704510;84;20983;-64
2022/12/07 01:28:43;;;;;;;2.20;1.37;;;;;;;0.96;85.46;95409.81;1704396;84;20979;-64
2022/12/07 01:31:15;;;;;;;2.00;1.50;;;;;;;0.85;85.17;95405.33;1704547;84;21504;-64
2022/12/07 01:33:44;;;;;;;1.97;1.50;;;;;;;0.81;85.15;95411.77;1697363;84;21045;-64
2022/12/07 01:36:24;;;;;;;2.33;1.43;;;;;;;0.72;84.63;95413.78;1704514;84;20967;-64
2022/12/07 01:38:56;;;;;;;1.53;1.30;;;;;;;0.73;85.17;95406.86;1674805;86;20991;-65
2022/12/07 01:41:26;;;;;;;4.33;1.95;;;;;;;0.75;84.89;95411.66;1674888;86;21022;-64
2022/12/07 01:44:27;;;;;;;2.47;1.87;;;;;;;0.75;84.66;95405.17;1704342;84;21465;-64
2022/12/07 01:47:03;;;;;;;2.47;1.60;;;;;;;0.79;84.06;95404.37;1704276;84;21014;-64
2022/12/07 01:49:44;;;;;;;2.20;1.97;;;;;;;0.80;84.17;95410.88;1696554;84;21527;-64
2022/12/07 01:52:27;;;;;;;2.57;1.90;;;;;;;0.85;84.04;95402.73;1703336;84;21640;-64
2022/12/07 01:55:00;;;;;;;2.75;1.67;;;;;;;0.89;84.22;95402.80;1704654;84;21031;-64
2022/12/07 01:57:27;;;;;;;3.90;2.30;;;;;;;0.90;84.09;95396.75;1674898;86;21054;-64
2022/12/07 01:59:56;;;;;;;1.70;1.57;;;;;;;0.90;84.27;95391.55;1704546;84;21008;-64
2022/12/07 02:02:37;;;;;;;2.27;1.93;;;;;;;0.85;84.09;95382.38;1704399;84;20980;-64
2022/12/07 02:05:06;;;;;;;2.80;1.97;;;;;;;0.73;84.01;95386.98;1674810;86;20971;-64
2022/12/07 02:07:36;;;;;;;2.57;1.90;;;;;;;0.65;84.35;95378.17;1704445;84;20999;-64
2022/12/07 02:10:22;;;;;;;2.43;1.60;;;;;;;0.56;84.79;95386.70;1704502;84;20952;-64
2022/12/07 02:12:57;;;;;;;3.70;2.37;;;;;;;0.51;84.62;95383.16;1674547;86;21003;-64
2022/12/07 02:15:45;;;;;;;2.10;1.90;;;;;;;0.43;84.46;95379.57;1696570;84;21066;-64
2022/12/07 02:18:29;;;;;;;2.57;1.97;;;;;;;0.36;84.81;95381.61;1704333;84;21061;-64
2022/12/07 02:21:22;;;;;;;4.35;1.75;;;;;;;0.28;84.93;95372.80;1681781;84;21533;-64
2022/12/07 02:24:18;;;;;;;1.93;1.60;;;;;;;0.23;85.06;95371.84;1672946;85;21049;-65
2022/12/07 02:27:07;;;;;;;6.37;1.97;;;;;;;0.23;84.82;95372.73;1704531;84;21025;-65
2022/12/07 02:29:57;;;;;;;2.30;1.73;;;;;;;0.31;85.14;95377.62;1701351;84;21173;-64
2022/12/07 02:32:32;;;;;;;2.03;1.80;;;;;;;0.22;84.51;95385.24;1704615;84;21107;-64
2022/12/07 02:35:27;;;;;;;1.90;1.70;;;;;;;0.21;84.89;95379.19;1697031;84;21065;-64
2022/12/07 02:38:35;;;;;;;3.70;1.93;;;;;;;0.20;85.12;95383.04;1704509;84;20974;-64
2022/12/07 02:41:31;;;;;;;3.43;2.00;;;;;;;0.24;85.68;95387.45;1704447;84;20984;-64
2022/12/07 02:44:02;;;;;;;2.80;2.17;;;;;;;0.30;85.97;95384.95;1697582;84;21066;-64
2022/12/07 02:46:40;;;;;;;2.43;2.10;;;;;;;0.34;85.79;95389.36;1704721;84;21005;-64
2022/12/07 02:49:08;;;;;;;3.13;2.40;;;;;;;0.37;85.74;95385.51;1701967;84;21057;-64
2022/12/07 02:51:41;;;;;;;2.60;2.20;;;;;;;0.38;85.29;95382.52;1703401;84;21048;-64
2022/12/07 02:54:15;;;;;;;3.00;2.20;;;;;;;0.36;85.38;95388.97;1695150;85;21500;-64
2022/12/07 02:57:14;;;;;;;2.13;1.87;;;;;;;0.30;85.16;95384.08;1701920;84;21005;-64
2022/12/07 03:00:07;;;;;;;2.17;1.60;;;;;;;0.24;85.08;95391.34;1672344;86;20995;-65
2022/12/07 03:03:03;;;;;;;2.07;1.70;;;;;;;0.20;85.57;95393.42;1701919;84;21048;-64
2022/12/07 03:05:56;;;;;;;2.40;1.90;;;;;;;0.18;85.85;95393.41;1646513;86;21027;-64
2022/12/07 03:08:45;;;;;;;2.42;1.60;;;;;;;0.23;86.02;95387.41;1672545;86;21540;-64
2022/12/07 03:11:23;;;;;;;4.40;2.20;;;;;;;0.21;85.84;95390.00;1672299;86;21011;-65
2022/12/07 03:14:05;;;;;;;3.23;2.63;;;;;;;0.20;85.62;95392.13;1672172;86;21043;-64
2022/12/07 03:16:43;;;;;;;2.83;1.97;;;;;;;0.17;85.24;95390.34;1667289;85;21027;-64
2022/12/07 03:19:20;;;;;;;2.43;2.13;;;;;;;0.11;84.99;95390.68;1668298;86;21037;-64
2022/12/07 03:21:58;;;;;;;4.30;2.40;;;;;;;0.09;85.14;95388.47;1668334;86;21046;-64
2022/12/07 03:24:33;;;;;;;2.70;2.30;;;;;;;0.08;85.21;95385.02;1643369;86;21026;-64
2022/12/07 03:27:14;;;;;;;3.77;2.17;;;;;;;0.09;84.97;95387.17;1668279;86;21161;-64
2022/12/07 03:29:46;;;;;;;2.63;2.07;;;;;;;0.07;85.21;95387.14;1667295;86;21504;-64
2022/12/07 03:32:26;;;;;;;2.93;2.13;;;;;;;0.03;85.02;95389.67;1667766;86;21109;-64
2022/12/07 03:35:07;;;;;;;2.87;2.07;;;;;;;0.00;85.16;95384.01;1668424;86;21061;-64
2022/12/07 03:37:52;;;;;;;2.60;1.90;;;;;;;-0.02;85.18;95383.97;1666269;86;21082;-64
2022/12/07 03:40:30;;;;;;;3.53;2.13;;;;;;;-0.07;85.02;95383.44;1668810;86;21034;-64
2022/12/07 03:43:01;;;;;;;3.07;2.17;;;;;;;-0.06;85.27;95386.47;1668081;86;21050;-65
2022/12/07 03:45:41;;;;;;;6.20;2.47;;;;;;;-0.08;85.26;95389.45;1668375;86;21030;-65
2022/12/07 03:48:22;;;;;;;2.33;1.63;;;;;;;-0.12;84.98;95379.45;1620328;86;21550;-65
2022/12/07 03:50:57;;;;;;;2.67;1.87;;;;;;;-0.15;85.40;95379.41;1668283;86;21077;-65
2022/12/07 03:53:35;;;;;;;3.40;1.80;;;;;;;-0.12;85.52;95373.41;1626634;88;21096;-64
2022/12/07 03:56:04;;;;;;;2.10;1.30;;;;;;;-0.12;85.58;95376.86;1653494;87;21029;-64
2022/12/07 03:58:32;;;;;;;2.47;1.67;;;;;;;-0.14;85.35;95372.06;1674573;86;21057;-64
2022/12/07 04:00:58;;;;;;;1.20;1.10;;;;;;;-0.11;85.06;95387.67;1674969;86;21145;-64
2022/12/07 04:03:25;;;;;;;1.20;1.10;;;;;;;-0.12;84.96;95385.07;1653786;87;21060;-64
2022/12/07 04:05:53;;;;;;;2.40;1.47;;;;;;;-0.17;84.88;95386.27;1674573;86;21046;-64
2022/12/07 04:08:20;;;;;;;2.43;1.73;;;;;;;-0.13;85.43;95379.41;1653658;87;21148;-64
2022/12/07 04:10:47;;;;;;;1.87;1.60;;;;;;;-0.14;84.95;95379.84;1675149;86;21078;-64
2022/12/07 04:13:13;;;;;;;2.60;1.50;;;;;;;-0.13;85.36;95380.28;1653409;87;21543;-64
2022/12/07 04:15:40;;;;;;;1.80;1.50;;;;;;;-0.11;85.54;95377.73;1674921;86;21022;-64
2022/12/07 04:18:07;;;;;;;2.83;2.10;;;;;;;-0.06;85.66;95374.80;1653551;87;21054;-64
2022/12/07 04:20:33;;;;;;;2.27;1.60;;;;;;;-0.05;85.65;95376.13;1674963;86;21066;-64
2022/12/07 04:23:00;;;;;;;2.30;1.60;;;;;;;-0.01;85.80;95377.92;1653889;87;21049;-65
2022/12/07 04:25:26;;;;;;;3.87;1.63;;;;;;;0.03;85.60;95374.98;1674893;85;21010;-64
2022/12/07 04:27:53;;;;;;;3.17;2.30;;;;;;;0.00;85.56;95377.52;1653589;87;21057;-64
2022/12/07 04:30:20;;;;;;;3.50;2.40;;;;;;;0.01;85.85;95377.96;1674779;86;21007;-64
2022/12/07 04:32:47;;;;;;;2.70;2.00;;;;;;;0.02;85.83;95382.28;1653879;87;21070;-64
2022/12/07 04:35:13;;;;;;;2.20;1.40;;;;;;;0.01;85.54;95382.28;1675168;86;21033;-65
2022/12/07 04:37:41;;;;;;;2.40;2.07;;;;;;;-0.04;85.35;95377.87;1674733;86;21109;-64
2022/12/07 04:40:10;;;;;;;2.07;1.43;;;;;;;-0.05;85.47;95383.02;1653724;87;20982;-64
2022/12/07 04:42:38;;;;;;;1.90;1.60;;;;;;;-0.11;85.26;95384.21;1674883;86;21021;-64
2022/12/07 04:45:07;;;;;;;3.07;1.97;;;;;;;-0.14;85.41;95381.14;1653667;87;21062;-64
2022/12/07 04:47:33;;;;;;;2.57;1.70;;;;;;;-0.20;85.13;95393.10;1674768;86;21067;-64
2022/12/07 04:50:00;;;;;;;2.00;1.70;;;;;;;-0.23;85.38;95393.52;1653867;86;21559;-64
2022/12/07 04:52:26;;;;;;;2.43;1.80;;;;;;;-0.21;85.50;95389.64;1689781;83;21009;-64
2022/12/07 04:54:53;;;;;;;35.67;16.73;;;;;;;-0.17;85.70;95399.23;1704632;84;20979;-64
2022/12/07 04:57:19;;;;;;;33.20;16.30;;;;;;;-0.23;85.04;95397.80;1670527;86;21505;-64
2022/12/07 04:59:46;;;;;;;37.53;19.63;;;;;;;-0.31;84.74;95400.67;1670539;86;20998;-65
2022/12/07 05:02:12;;;;;;;24.20;13.10;;;;;;;-0.44;84.57;95400.42;1670325;86;21011;-64
2022/12/07 05:04:39;;;;;;;33.77;18.03;;;;;;;-0.51;84.77;95405.03;1670699;86;21010;-64
2022/12/07 05:07:06;;;;;;;40.00;20.77;;;;;;;-0.54;85.72;95402.38;1670518;86;21070;-64
2022/12/07 05:09:33;;;;;;;41.47;21.43;;;;;;;-0.54;85.49;95402.80;1670541;86;20982;-64
2022/12/07 05:11:59;;;;;;;37.40;20.20;;;;;;;-0.62;85.35;95409.55;1670508;86;21073;-64
2022/12/07 05:14:26;;;;;;;24.97;14.37;;;;;;;-0.66;85.85;95411.19;1704037;84;21055;-64
2022/12/07 05:16:53;;;;;;;36.87;18.40;;;;;;;-0.74;85.09;95408.43;1670296;86;21038;-64
2022/12/07 05:19:20;;;;;;;31.10;15.93;;;;;;;-0.80;85.01;95422.98;1670180;86;21520;-64
2022/12/07 05:21:48;;;;;;;21.77;11.60;;;;;;;-0.83;85.18;95417.71;1670154;86;21065;-64
2022/12/07 05:24:16;;;;;;;50.50;27.57;;;;;;;-0.87;85.86;95421.53;1670419;86;21034;-64
2022/12/07 05:26:44;;;;;;;35.23;20.60;;;;;;;-0.83;86.91;95419.01;1670410;86;21038;-64
2022/12/07 05:29:14;;;;;;;26.07;18.27;;;;;;;-0.76;87.38;95423.48;1670248;86;21038;-64
2022/12/07 05:31:41;;;;;;;38.30;23.63;;;;;;;-0.75;87.48;95427.42;1667939;86;21161;-64
2022/12/07 05:34:08;;;;;;;29.97;19.77;;;;;;;-0.73;87.51;95423.16;1670387;86;21528;-64
2022/12/07 05:36:35;;;;;;;40.67;26.23;;;;;;;-0.73;87.88;95423.16;1670269;86;21564;-64
2022/12/07 05:39:02;;;;;;;54.67;27.30;;;;;;;-0.75;87.32;95418.78;1670499;86;21070;-64
2022/12/07 05:44:14;;;;;;;11.10;5.90;;;;;;;-0.67;87.18;95415.92;1670179;86;21508;-64
2022/12/07 05:46:40;;;;;;;9.50;6.03;;;;;;;-0.62;87.20;95416.03;1670389;86;21021;-64
2022/12/07 05:49:07;;;;;;;71.50;32.13;;;;;;;-0.60;87.39;95415.65;1679448;85;21074;-64
2022/12/07 05:51:34;;;;;;;55.03;28.13;;;;;;;-0.49;87.94;95413.71;1704470;84;21052;-65
2022/12/07 05:54:00;;;;;;;32.77;21.67;;;;;;;-0.46;87.44;95412.90;1674849;85;21084;-64
2022/12/07 05:56:26;;;;;;;32.77;19.00;;;;;;;-0.44;87.49;95415.98;1670450;86;21070;-64
2022/12/07 06:01:40;;;;;;;25.23;16.43;;;;;;;-0.31;87.63;95418.82;1670506;86;21058;-64
2022/12/07 06:04:07;;;;;;;29.70;16.70;;;;;;;-0.39;86.49;95408.73;1669859;86;21069;-64
2022/12/07 06:06:33;;;;;;;25.33;17.63;;;;;;;-0.52;86.18;95412.78;1669262;86;21103;-65
2022/12/07 06:09:00;;;;;;;30.33;19.50;;;;;;;-0.61;86.70;95421.23;1669222;86;21074;-64
2022/12/07 06:14:12;;;;;;;33.63;20.20;;;;;;;-0.62;87.42;95423.38;1694873;84;21029;-62
2022/12/07 06:16:39;;;;;;;34.80;19.60;;;;;;;-0.57;87.70;95419.16;1699049;84;21087;-63
2022/12/07 06:19:05;;;;;;;27.77;17.43;;;;;;;-0.51;87.72;95424.46;1690025;84;21011;-64
2022/12/07 06:21:32;;;;;;;42.23;20.97;;;;;;;-0.50;87.49;95419.75;1695889;84;21041;-65
2022/12/07 06:23:59;;;;;;;42.93;21.23;;;;;;;-0.66;86.36;95426.34;1690600;84;21004;-65
2022/12/07 06:26:25;;;;;;;41.47;21.93;;;;;;;-0.81;86.15;95422.08;1681374;85;21591;-63
2022/12/07 06:28:52;;;;;;;32.63;18.13;;;;;;;-0.89;86.69;95419.75;1674139;86;21092;-64
2022/12/07 06:31:18;;;;;;;22.90;12.60;;;;;;;-0.88;87.45;95427.57;1692749;85;21106;-65
2022/12/07 06:33:45;;;;;;;20.13;11.90;;;;;;;-0.93;87.16;95424.00;1693081;85;21524;-66
2022/12/07 06:36:12;;;;;;;27.40;14.27;;;;;;;-0.82;88.07;95433.73;1693295;85;21532;-64
2022/12/07 06:38:39;;;;;;;19.87;10.50;;;;;;;-0.78;87.72;95427.75;1693134;85;21081;-64
2022/12/07 06:41:06;;;;;;;15.03;9.80;;;;;;;-0.81;87.13;95434.17;1692067;85;21002;-65
2022/12/07 06:43:33;;;;;;;35.13;18.60;;;;;;;-0.87;87.00;95429.73;1692092;85;21355;-64
2022/12/07 06:46:00;;;;;;;15.30;8.87;;;;;;;-0.89;87.46;95425.80;1681461;85;21093;-63
2022/12/07 06:48:27;;;;;;;10.67;6.07;;;;;;;-0.84;87.93;95421.16;1692675;85;21090;-63
2022/12/07 06:50:53;;;;;;;19.03;9.93;;;;;;;-0.74;88.23;95419.22;1693292;85;21065;-62
2022/12/07 06:53:20;;;;;;;88.60;40.90;;;;;;;-0.77;87.76;95417.44;1692404;85;22202;-65
2022/12/07 06:55:46;;;;;;;66.83;31.33;;;;;;;-0.79;87.83;95422.13;1700132;84;21110;-63
2022/12/07 06:58:13;;;;;;;76.63;39.53;;;;;;;-0.84;87.49;95424.61;1644506;87;21081;-65
2022/12/07 07:00:40;;;;;;;109.27;53.47;;;;;;;-0.84;87.76;95421.16;1673049;86;21124;-64
2022/12/07 07:03:07;;;;;;;12.33;7.37;;;;;;;-0.76;88.40;95425.65;1676008;86;21601;-63
2022/12/07 07:05:35;;;;;;;18.93;11.53;;;;;;;-0.73;87.88;95424.84;1675403;86;21079;-62
2022/12/07 07:08:02;;;;;;;9.27;5.77;;;;;;;-0.79;87.51;95419.11;1673505;86;21038;-62
2022/12/07 07:10:29;;;;;;;77.37;41.83;;;;;;;-0.79;87.57;95420.84;1692175;85;21087;-62
2022/12/07 07:12:56;;;;;;;79.83;45.57;;;;;;;-0.74;88.46;95419.22;1700411;84;21075;-62
2022/12/07 07:15:23;;;;;;;89.53;47.20;;;;;;;-0.61;88.95;95420.36;1694364;85;21098;-64
2022/12/07 07:17:49;;;;;;;79.57;45.90;;;;;;;-0.53;88.36;95417.11;1692901;84;21028;-63
2022/12/07 07:20:16;;;;;;;86.37;47.17;;;;;;;-0.53;87.77;95416.20;1692828;85;21114;-64
2022/12/07 07:22:42;;;;;;;112.80;58.40;;;;;;;-0.59;87.33;95418.67;1692376;85;21027;-62
2022/12/07 07:25:09;;;;;;;54.03;27.90;;;;;;;-0.67;87.33;95423.70;1706985;84;20943;-61
2022/12/07 07:27:36;;;;;;;16.00;9.33;;;;;;;-0.69;87.69;95420.19;1720853;83;20999;-62
2022/12/07 07:30:05;;;;;;;6.27;4.40;;;;;;;-0.66;87.84;95417.27;1702749;84;21058;-62
2022/12/07 07:32:32;;;;;;;10.20;5.20;;;;;;;-0.65;87.93;95416.84;1723702;83;21017;-63
2022/12/07 07:34:59;;;;;;;8.03;4.93;;;;;;;-0.54;88.38;95414.47;1723371;83;21066;-64
2022/12/07 07:37:26;;;;;;;7.87;4.30;;;;;;;-0.53;87.90;95413.22;1702659;84;21487;-64
2022/12/07 07:39:52;;;;;;;237.40;77.97;;;;;;;-0.57;87.68;95415.28;1723496;83;21091;-63
2022/12/07 07:42:19;;;;;;;86.90;41.93;;;;;;;-0.51;88.33;95409.34;1702407;84;21024;-65
2022/12/07 07:44:46;;;;;;;65.77;35.97;;;;;;;-0.41;88.69;95415.16;1723501;83;20998;-64
2022/12/07 07:47:13;;;;;;;56.40;32.33;;;;;;;-0.28;88.76;95419.78;1702500;84;21084;-63
2022/12/07 07:49:40;;;;;;;44.03;26.77;;;;;;;-0.17;88.79;95415.23;1724003;83;21018;-62
2022/12/07 07:52:06;;;;;;;37.07;21.57;;;;;;;-0.10;88.45;95416.67;1723261;83;21066;-64
2022/12/07 07:54:33;;;;;;;91.40;46.07;;;;;;;0.03;88.66;95415.61;1724813;83;21117;-66
2022/12/07 07:56:59;;;;;;;61.37;31.73;;;;;;;0.13;88.20;95409.75;1710155;83;21891;-64
2022/12/07 07:59:26;;;;;;;60.27;29.47;;;;;;;0.11;87.90;95407.55;1726256;83;21022;-64
2022/12/07 08:01:53;;;;;;;59.77;28.80;;;;;;;0.15;87.72;95408.03;1710986;84;21580;-62
2022/12/07 08:04:20;;;;;;;62.97;29.80;;;;;;;0.17;87.88;95408.50;1681125;85;21042;-62
2022/12/07 08:06:46;;;;;;;19.43;10.90;;;;;;;0.28;88.23;95410.42;1726234;83;21042;-63
2022/12/07 08:09:13;;;;;;;16.33;9.50;;;;;;;0.32;87.77;95413.10;1710590;84;21083;-63
2022/12/07 08:11:39;;;;;;;17.53;9.73;;;;;;;0.33;87.46;95418.77;1726022;83;20959;-64
2022/12/07 08:14:06;;;;;;;19.63;10.30;;;;;;;0.36;87.72;95416.22;1710691;84;21549;-63
2022/12/07 08:16:33;;;;;;;17.37;9.60;;;;;;;0.44;87.87;95415.05;1680332;85;21070;-66
2022/12/07 08:18:59;;;;;;;33.77;15.37;;;;;;;0.48;87.64;95414.66;1724835;83;21441;-63
2022/12/07 08:21:26;;;;;;;29.37;16.27;;;;;;;0.52;87.67;95411.28;1711600;84;21099;-63
2022/12/07 08:23:52;;;;;;;29.97;18.30;;;;;;;0.64;88.05;95415.39;1726219;83;21043;-62
2022/12/07 08:26:19;;;;;;;29.90;18.33;;;;;;;0.74;88.01;95414.69;1710174;84;21022;-62
2022/12/07 08:28:45;;;;;;;25.67;15.57;;;;;;;0.92;88.53;95410.64;1726553;83;21043;-64
2022/12/07 08:31:16;;;;;;;26.40;15.20;;;;;;;1.10;88.45;95408.73;1711411;84;21062;-62
2022/12/07 08:33:46;;;;;;;19.80;12.70;;;;;;;1.24;88.12;95405.48;1711235;83;21075;-62
2022/12/07 08:36:13;;;;;;;27.37;15.03;;;;;;;1.29;87.25;95401.66;1724980;83;21046;-62
2022/12/07 08:38:41;;;;;;;24.53;15.27;;;;;;;1.25;86.65;95404.63;1710373;84;21087;-63
2022/12/07 08:41:08;;;;;;;164.37;92.67;;;;;;;1.36;87.49;95403.50;1711096;83;20987;-63
2022/12/07 08:43:37;;;;;;;88.90;48.73;;;;;;;1.57;88.00;95405.50;1725979;83;21504;-64
2022/12/07 08:46:16;;;;;;;55.60;28.77;;;;;;;1.77;87.06;95401.84;1711215;84;21486;-63
2022/12/07 08:48:50;;;;;;;9.30;6.00;;;;;;;1.98;87.67;95399.05;1705435;84;21107;-64
2022/12/07 08:51:17;;;;;;;6.47;3.80;;;;;;;2.19;87.40;95401.00;1725092;83;21058;-64
2022/12/07 08:53:45;;;;;;;5.43;3.10;;;;;;;2.32;85.45;95392.05;1678909;84;21223;-64
2022/12/07 08:56:11;;;;;;;5.77;3.47;;;;;;;2.49;85.64;95397.39;1668549;85;20994;-64
2022/12/07 08:58:39;;;;;;;5.10;3.67;;;;;;;2.64;83.73;95394.05;1667497;86;21090;-63
2022/12/07 09:01:06;;;;;;;10.33;5.77;;;;;;;2.77;83.05;95390.72;1673220;85;21141;-62
2022/12/07 09:03:32;;;;;;;16.17;11.37;;;;;;;2.89;83.55;95382.53;1674624;85;21494;-63
2022/12/07 09:06:01;;;;;;;6.67;4.87;;;;;;;2.99;83.68;95381.74;1674627;85;21116;-63
2022/12/07 09:08:32;;;;;;;2.80;2.50;;;;;;;3.06;81.29;95383.97;1673991;85;21037;-64
2022/12/07 09:10:59;;;;;;;11.07;8.63;;;;;;;3.13;81.76;95381.86;1673989;85;21109;-63
2022/12/07 09:13:25;;;;;;;4.40;3.67;;;;;;;3.16;82.14;95381.43;1671602;85;21515;-63
2022/12/07 09:15:52;;;;;;;13.90;7.07;;;;;;;3.22;79.47;95380.15;1663194;86;21017;-64
2022/12/07 09:18:18;;;;;;;12.40;7.70;;;;;;;3.29;78.99;95369.78;1648559;85;20970;-63
2022/12/07 09:20:45;;;;;;;8.37;5.07;;;;;;;3.37;79.57;95368.94;1645771;87;21089;-63
2022/12/07 09:23:11;;;;;;;5.33;3.30;;;;;;;3.44;78.97;95361.59;1646916;86;21045;-66
2022/12/07 09:25:38;;;;;;;5.07;3.23;;;;;;;3.39;79.38;95363.30;1665601;86;21102;-62
2022/12/07 09:28:04;;;;;;;7.57;4.40;;;;;;;3.42;79.94;95365.92;1670112;86;21010;-63
2022/12/07 09:30:31;;;;;;;20.87;12.67;;;;;;;3.51;78.02;95362.95;1665989;86;21073;-63
2022/12/07 09:32:58;;;;;;;7.47;5.10;;;;;;;3.58;79.24;95356.46;1653330;86;21104;-64
2022/12/07 09:35:25;;;;;;;6.20;4.20;;;;;;;3.71;79.39;95349.99;1661378;84;21097;-64
2022/12/07 09:37:53;;;;;;;4.70;3.20;;;;;;;3.79;78.25;95353.05;1675305;85;21069;-63
2022/12/07 09:40:22;;;;;;;4.63;2.60;;;;;;;3.89;77.61;95347.44;1675465;85;21316;-64
2022/12/07 09:42:52;;;;;;;3.13;2.60;;;;;;;4.17;78.49;95341.84;1675303;86;21112;-63
2022/12/07 09:45:32;;;;;;;3.77;3.17;;;;;;;4.64;76.75;95333.64;1675109;86;21100;-61
2022/12/07 09:47:59;;;;;;;4.37;2.60;;;;;;;5.04;76.28;95331.88;1674945;85;21057;-61
2022/12/07 09:50:28;;;;;;;4.30;3.03;;;;;;;5.45;76.73;95330.90;1674268;86;21148;-62
2022/12/07 09:53:12;;;;;;;3.90;2.50;;;;;;;5.82;74.64;95333.36;1674460;85;21038;-63
2022/12/07 09:55:42;;;;;;;4.40;3.00;;;;;;;6.23;72.97;95326.64;1674090;86;21081;-62
2022/12/07 09:58:14;;;;;;;5.50;4.08;;;;;;;6.53;68.44;95330.36;1674018;86;21556;-63
2022/12/07 10:00:40;;;;;;;3.05;2.75;;;;;;;7.07;71.02;95320.31;1673250;86;21607;-63
2022/12/07 10:03:09;;;;;;;9.55;5.42;;;;;;;7.53;68.77;95323.77;1650874;87;21031;-62
2022/12/07 10:05:41;;;;;;;6.40;4.78;;;;;;;7.62;60.20;95310.55;1668325;85;21020;-64
2022/12/07 10:08:11;;;;;;;4.40;3.62;;;;;;;7.85;61.83;95306.33;1703918;84;20998;-62
2022/12/07 10:10:39;;;;;;;4.85;3.40;;;;;;;8.22;63.50;95307.16;1698048;83;21090;-62
2022/12/07 10:13:13;;;;;;;4.80;3.98;;;;;;;8.55;64.52;95300.56;1655697;86;21062;-62
2022/12/07 10:15:53;;;;;;;35.30;17.17;;;;;;;8.86;61.91;95300.06;1695085;85;21116;-62
2022/12/07 10:18:37;;;;;;;27.48;14.75;;;;;;;9.18;61.65;95298.20;1694089;85;21105;-62
2022/12/07 10:21:20;;;;;;;7.67;4.12;;;;;;;9.41;59.42;95291.64;1694561;85;21070;-62
2022/12/07 10:24:08;;;;;;;12.40;4.97;;;;;;;9.86;58.12;95285.05;1693408;85;21148;-62
2022/12/07 10:26:49;;;;;;;15.23;5.20;;;;;;;10.27;55.93;95272.73;1694297;85;21521;-60
2022/12/07 10:29:30;;;;;;;6.30;3.95;;;;;;;10.43;56.26;95267.55;1694751;84;21042;-60
2022/12/07 10:32:01;;;;;;;10.15;6.40;;;;;;;10.73;56.59;95272.55;1694783;85;21026;-60
2022/12/07 10:34:35;;;;;;;13.25;8.45;;;;;;;10.87;55.61;95266.94;1694802;84;21022;-61
2022/12/07 10:37:20;;;;;;;19.30;12.65;;;;;;;10.58;53.05;95266.32;1693928;85;21133;-60
2022/12/07 10:39:58;;;;;;;10.18;8.10;;;;;;;10.29;53.87;95271.83;1694080;85;21097;-60
2022/12/07 10:42:28;;;;;;;7.80;5.80;;;;;;;10.11;54.41;95277.49;1694034;84;21053;-60
2022/12/07 10:45:15;;;;;;;9.03;7.62;;;;;;;10.23;55.22;95273.27;1694943;85;21005;-60
2022/12/07 10:48:07;;;;;;;8.20;6.20;;;;;;;10.60;55.56;95268.48;1695055;84;21093;-61
2022/12/07 10:50:54;;;;;;;12.93;9.75;;;;;;;10.88;52.98;95261.20;1695489;84;21018;-62
2022/12/07 10:53:35;;;;;;;12.60;10.28;;;;;;;11.39;53.41;95256.78;1689242;84;21339;-62
2022/12/07 10:56:16;;;;;;;13.38;9.30;;;;;;;11.67;50.19;95259.09;1692126;84;21031;-63
2022/12/07 10:59:15;;;;;;;95.62;61.63;;;;;;;12.05;48.17;95249.21;1691275;85;21149;-63
2022/12/07 11:01:56;;;;;;;17.25;7.15;;;;;;;12.08;42.19;95250.44;1691894;85;21058;-62
2022/12/07 11:05:20;;;;;;;9.60;3.75;;;;;;;12.45;43.44;95245.81;1692190;85;21078;-60
2022/12/07 11:08:11;;;;;;;;;;;;;;;12.44;39.34;95248.89;1695551;85;21528;-59
2022/12/07 11:10:54;;;;;;;8.33;4.20;;;;;;;12.68;43.56;95253.88;1692926;85;20096;-60
2022/12/07 11:13:29;;;;;;;6.60;3.47;;;;;;;12.95;41.39;95253.88;1693280;85;21066;-60
2022/12/07 11:16:23;;;;;;;3.52;2.17;;;;;;;13.19;39.36;95246.43;1693391;85;21062;-59
2022/12/07 11:19:21;;;;;;;39.00;18.85;;;;;;;13.27;39.09;95240.90;1649724;87;21522;-60
2022/12/07 11:22:08;;;;;;;2.95;2.65;;;;;;;13.38;39.69;95240.08;1659342;85;21038;-60
2022/12/07 11:25:12;;;;;;;0.40;0.40;;;;;;;13.56;38.42;95241.21;1693462;85;21492;-60
2022/12/07 11:28:09;;;;;;;0.40;0.40;;;;;;;13.53;37.22;95241.33;1684912;85;21157;-60
2022/12/07 11:30:44;;;;;;;4.30;4.03;;;;;;;13.06;35.93;95239.83;1691659;85;21038;-60
2022/12/07 11:33:31;;;;;;;1.65;1.10;;;;;;;13.38;38.73;95240.08;1691799;84;21105;-60
2022/12/07 11:36:09;;;;;;;0.70;0.70;;;;;;;13.19;36.59;95240.27;1692430;84;21128;-60
2022/12/07 11:38:56;;;;;;;0.70;0.53;;;;;;;12.97;38.70;95243.64;1692096;85;21046;-60
2022/12/07 11:41:27;;;;;;;1.30;1.20;;;;;;;12.86;37.44;95240.96;1692977;85;21589;-60
2022/12/07 11:44:07;;;;;;;3.15;2.52;;;;;;;12.53;37.17;95235.84;1693429;85;21078;-60
2022/12/07 11:46:47;;;;;;;0.20;0.20;;;;;;;12.43;37.60;95237.05;1678325;85;21034;-59
2022/12/07 11:49:35;;;;;;;0.20;0.20;;;;;;;11.70;36.86;95244.46;1693391;84;21014;-59
2022/12/07 11:52:06;;;;;;;1.67;0.40;;;;;;;11.36;38.79;95240.56;1610844;87;21159;-59
2022/12/07 11:54:36;;;;;;;3.77;3.45;;;;;;;11.19;39.42;95246.78;1692949;85;21002;-59
2022/12/07 11:57:08;;;;;;;1.25;0.98;;;;;;;11.23;40.63;95241.34;1695727;84;21050;-60
2022/12/07 11:59:53;;;;;;;2.55;2.00;;;;;;;11.37;39.10;95250.70;1695959;85;21480;-60
2022/12/07 12:02:41;;;;;;;0.47;0.47;;;;;;;11.51;39.93;95235.77;1695411;84;21034;-60
2022/12/07 12:05:18;;;;;;;0.50;0.50;;;;;;;12.01;40.01;95231.70;1695968;85;21053;-60